Terminal Aerodrome Forecast
Issued by NWS Corpus Christi, TX

Home | Current Version | Previous Version | Text Only | Print | Product List | Glossary On
Versions: 1 2 3 4 5 6 7 8 9 10 11 12 13 14 15 16 17 18 19 20 21 22 23
240
FTUS44 KCRP 290959 AAD
TAFCRP
TAF AMD
KCRP 290959Z 2910/3006 20010KT P6SM -TSRA FEW025CB OVC100
     FM291100 16007KT P6SM -TSRA SCT025CB OVC100
     FM291300 10008KT P6SM BKN025
     FM291800 10008KT P6SM VCTS BKN035CB=

USA.gov is the U.S. government's official web portal to all federal, state and local government web resources and services.